Time;durP1;ratioP1;P1;durP2;ratioP2;P2;SDS_P1;SDS_P2;PMS_P1;PMS_P2;Temp;Humidity;BMP_temperature;BMP_pressure;BME280_temperature;BME280_humidity;BME280_pressure;Samples;Min_cycle;Max_cycle;Signal;HPM_P1;HPM_P2
2022/06/29 00:01:00;;;;;;;3.03;2.00;;;;;;;;;;6148446;28;20137;-80
2022/06/29 00:04:02;;;;;;;2.70;1.90;;;;;;;;;;6173360;28;20528;-80
2022/06/29 00:07:03;;;;;;;5.53;2.20;;;;;;;;;;6176926;28;20097;-80
2022/06/29 00:10:06;;;;;;;3.92;2.28;;;;;;;;;;6144632;28;20101;-80
2022/06/29 00:13:08;;;;;;;2.42;2.22;;;;;;;;;;6173913;28;20081;-80
2022/06/29 00:16:09;;;;;;;4.20;2.30;;;;;;;;;;6174568;28;20086;-80
2022/06/29 00:19:11;;;;;;;3.38;2.10;;;;;;;;;;6149844;28;20066;-80
2022/06/29 00:22:13;;;;;;;3.42;2.00;;;;;;;;;;6174148;28;20042;-80
2022/06/29 00:25:15;;;;;;;2.58;2.08;;;;;;;;;;6161491;28;20048;-80
2022/06/29 00:28:17;;;;;;;2.28;2.08;;;;;;;;;;6166957;28;20046;-80
2022/06/29 00:31:19;;;;;;;6.00;2.13;;;;;;;;;;6167954;28;20046;-80
2022/06/29 00:34:20;;;;;;;2.55;2.10;;;;;;;;;;6174154;28;20054;-80
2022/06/29 00:37:22;;;;;;;2.33;2.13;;;;;;;;;;6145046;28;20179;-80
2022/06/29 00:40:24;;;;;;;2.20;1.95;;;;;;;;;;6173271;28;20528;-80
2022/06/29 00:43:25;;;;;;;3.72;1.85;;;;;;;;;;6172861;28;20054;-80
2022/06/29 00:46:27;;;;;;;2.88;2.33;;;;;;;;;;6158800;28;20055;-80
2022/06/29 00:49:30;;;;;;;2.80;2.20;;;;;;;;;;6173521;28;20746;-80
2022/06/29 00:52:33;;;;;;;3.22;1.98;;;;;;;;;;6172933;28;20154;-81
2022/06/29 00:55:40;;;;;;;3.65;2.35;;;;;;;;;;6149645;28;20143;-80
2022/06/29 00:58:42;;;;;;;4.63;2.35;;;;;;;;;;6171946;28;20162;-80
2022/06/29 01:01:44;;;;;;;4.00;2.25;;;;;;;;;;6174562;28;20057;-80
2022/06/29 01:04:47;;;;;;;3.50;2.63;;;;;;;;;;6176201;28;20404;-80
2022/06/29 01:07:49;;;;;;;;;;;;;;;;;;6174114;28;20133;-80
2022/06/29 01:10:51;;;;;;;3.80;2.67;;;;;;;;;;6163806;28;20012;-80
2022/06/29 01:13:52;;;;;;;3.35;2.63;;;;;;;;;;6174537;28;20046;-80
2022/06/29 01:16:55;;;;;;;4.28;2.70;;;;;;;;;;6176333;28;20052;-81
2022/06/29 01:19:57;;;;;;;3.63;2.67;;;;;;;;;;6171945;28;20050;-80
2022/06/29 01:22:59;;;;;;;4.68;2.50;;;;;;;;;;6152914;28;20057;-79
2022/06/29 01:26:05;;;;;;;4.03;2.63;;;;;;;;;;6170135;28;20078;-80
2022/06/29 01:29:06;;;;;;;3.20;2.05;;;;;;;;;;6175174;28;20129;-79
2022/06/29 01:32:08;;;;;;;3.22;2.80;;;;;;;;;;6168762;28;20043;-80
2022/06/29 01:35:13;;;;;;;3.10;2.72;;;;;;;;;;6149355;28;20046;-80
2022/06/29 01:38:15;;;;;;;3.38;2.65;;;;;;;;;;6153158;28;20054;-80
2022/06/29 01:41:16;;;;;;;3.30;2.60;;;;;;;;;;6148294;28;20667;-79
2022/06/29 01:44:18;;;;;;;3.20;2.17;;;;;;;;;;6152035;28;20097;-80
2022/06/29 01:47:20;;;;;;;3.33;2.70;;;;;;;;;;6140558;28;20094;-79
2022/06/29 01:50:21;;;;;;;4.45;2.60;;;;;;;;;;6152266;28;20092;-79
2022/06/29 01:53:23;;;;;;;4.57;2.65;;;;;;;;;;6140820;28;20079;-80
2022/06/29 01:56:25;;;;;;;3.22;2.90;;;;;;;;;;6170137;28;20062;-80
2022/06/29 01:59:26;;;;;;;2.65;2.40;;;;;;;;;;6168392;28;20104;-80
2022/06/29 02:02:28;;;;;;;5.03;2.58;;;;;;;;;;6168506;28;20073;-80
2022/06/29 02:05:30;;;;;;;4.95;2.40;;;;;;;;;;6181558;28;20054;-80
2022/06/29 02:08:31;;;;;;;3.70;2.30;;;;;;;;;;6178858;28;20068;-80
2022/06/29 02:11:33;;;;;;;2.17;1.98;;;;;;;;;;6178017;28;20042;-80
2022/06/29 02:14:34;;;;;;;6.00;2.50;;;;;;;;;;6164355;28;20186;-79
2022/06/29 02:17:36;;;;;;;5.90;2.53;;;;;;;;;;6163748;28;20047;-80
2022/06/29 02:20:38;;;;;;;3.70;2.40;;;;;;;;;;6169929;28;20046;-80
2022/06/29 02:23:39;;;;;;;3.28;2.78;;;;;;;;;;6158377;28;20047;-80
2022/06/29 02:26:41;;;;;;;3.67;2.75;;;;;;;;;;6162620;28;20051;-80
2022/06/29 02:29:43;;;;;;;3.88;2.78;;;;;;;;;;6166892;28;20047;-80
2022/06/29 02:36:04;;;;;;;3.53;2.88;;;;;;;;;;6169044;28;20043;-82
2022/06/29 02:39:06;;;;;;;3.55;2.55;;;;;;;;;;6167796;28;20880;-81
2022/06/29 02:42:08;;;;;;;3.03;2.53;;;;;;;;;;6153213;28;20043;-81
2022/06/29 02:45:09;;;;;;;4.43;2.40;;;;;;;;;;6165885;28;20137;-82
2022/06/29 02:48:11;;;;;;;4.28;2.40;;;;;;;;;;6182172;28;20039;-82
2022/06/29 02:51:12;;;;;;;3.60;2.78;;;;;;;;;;6175891;28;20342;-81
2022/06/29 02:54:14;;;;;;;4.60;2.70;;;;;;;;;;6181903;28;20049;-81
2022/06/29 02:57:16;;;;;;;3.92;2.80;;;;;;;;;;6180542;28;20042;-82
2022/06/29 03:00:18;;;;;;;4.97;3.28;;;;;;;;;;6196362;28;20134;-82
2022/06/29 03:03:19;;;;;;;3.70;2.63;;;;;;;;;;6159172;28;20427;-81
2022/06/29 03:06:21;;;;;;;4.10;2.40;;;;;;;;;;6184746;28;20050;-82
2022/06/29 03:09:23;;;;;;;3.65;2.80;;;;;;;;;;6146580;28;20115;-82
2022/06/29 03:12:24;;;;;;;2.80;2.60;;;;;;;;;;6188168;28;20054;-82
2022/06/29 03:15:26;;;;;;;5.18;2.83;;;;;;;;;;6169913;28;20058;-82
2022/06/29 03:18:28;;;;;;;5.10;3.28;;;;;;;;;;6180017;28;20053;-81
2022/06/29 03:21:29;;;;;;;4.03;3.00;;;;;;;;;;6163010;28;20034;-82
2022/06/29 03:24:31;;;;;;;3.67;2.90;;;;;;;;;;6176875;28;20096;-82
2022/06/29 03:27:32;;;;;;;6.28;3.53;;;;;;;;;;6158645;28;20042;-82
2022/06/29 03:30:34;;;;;;;9.35;4.25;;;;;;;;;;6152240;28;20750;-80
2022/06/29 03:33:35;;;;;;;6.35;4.70;;;;;;;;;;6172817;28;20043;-82
2022/06/29 03:37:02;;;;;;;7.82;4.68;;;;;;;;;;6188448;28;20042;-81
2022/06/29 03:40:05;;;;;;;8.38;4.93;;;;;;;;;;6173662;28;20050;-82
2022/06/29 03:43:06;;;;;;;9.18;5.38;;;;;;;;;;6185004;28;20153;-82
2022/06/29 03:46:08;;;;;;;11.43;4.97;;;;;;;;;;6178510;28;20408;-82
2022/06/29 03:49:10;;;;;;;10.82;6.03;;;;;;;;;;6171874;28;20058;-82
2022/06/29 03:52:11;;;;;;;10.18;5.60;;;;;;;;;;6136097;28;20071;-82
2022/06/29 03:55:13;;;;;;;11.10;6.95;;;;;;;;;;6153754;28;20073;-81
2022/06/29 03:58:14;;;;;;;8.90;5.38;;;;;;;;;;6178253;28;20408;-82
2022/06/29 04:01:16;;;;;;;8.57;4.80;;;;;;;;;;6171337;28;20046;-81
2022/06/29 04:04:18;;;;;;;7.95;4.63;;;;;;;;;;6155397;28;20106;-81
2022/06/29 04:07:20;;;;;;;10.35;5.10;;;;;;;;;;6146176;28;20132;-82
2022/06/29 04:10:21;;;;;;;9.50;4.90;;;;;;;;;;6162727;28;20042;-81
2022/06/29 04:13:23;;;;;;;7.70;4.60;;;;;;;;;;6154018;28;20046;-82
2022/06/29 04:16:25;;;;;;;7.57;4.35;;;;;;;;;;6174182;28;20140;-82
2022/06/29 04:19:27;;;;;;;7.32;4.43;;;;;;;;;;6155118;28;20142;-82
2022/06/29 04:22:28;;;;;;;6.05;4.00;;;;;;;;;;6171105;28;20070;-82
2022/06/29 04:25:30;;;;;;;6.75;3.75;;;;;;;;;;6173604;28;20074;-82
2022/06/29 04:28:32;;;;;;;5.57;3.97;;;;;;;;;;6170506;28;20607;-82
2022/06/29 04:31:33;;;;;;;5.72;3.70;;;;;;;;;;6176422;28;20043;-82
2022/06/29 04:34:35;;;;;;;4.55;3.60;;;;;;;;;;6179862;28;20039;-82
2022/06/29 04:37:37;;;;;;;5.47;3.30;;;;;;;;;;6155896;28;20194;-81
2022/06/29 04:41:00;;;;;;;7.70;3.83;;;;;;;;;;6159076;28;20189;-82
2022/06/29 04:44:02;;;;;;;7.18;4.10;;;;;;;;;;6167002;28;20042;-82
2022/06/29 04:47:03;;;;;;;7.05;3.55;;;;;;;;;;6166983;28;20129;-82
2022/06/29 04:50:05;;;;;;;5.75;3.92;;;;;;;;;;6174265;28;20069;-82
2022/06/29 04:53:07;;;;;;;5.03;3.83;;;;;;;;;;6178536;28;20396;-82
2022/06/29 04:56:09;;;;;;;3.92;3.42;;;;;;;;;;6159562;28;20134;-82
2022/06/29 04:59:11;;;;;;;6.80;3.65;;;;;;;;;;6177488;28;20043;-82
2022/06/29 05:02:12;;;;;;;7.97;3.67;;;;;;;;;;6150591;28;20043;-82
2022/06/29 05:05:14;;;;;;;4.60;3.38;;;;;;;;;;6145336;28;20053;-82
2022/06/29 05:08:15;;;;;;;6.28;3.60;;;;;;;;;;6170493;28;20069;-82
2022/06/29 05:11:20;;;;;;;5.80;3.22;;;;;;;;;;6170763;28;20108;-81
2022/06/29 05:14:21;;;;;;;5.05;3.63;;;;;;;;;;6182509;28;20181;-82
2022/06/29 05:17:23;;;;;;;6.85;3.72;;;;;;;;;;6170160;28;20141;-82
2022/06/29 05:20:24;;;;;;;6.82;3.67;;;;;;;;;;6182681;28;20566;-82
2022/06/29 05:23:29;;;;;;;7.20;4.25;;;;;;;;;;6163184;28;20664;-82
2022/06/29 05:26:34;;;;;;;6.93;4.07;;;;;;;;;;6173005;28;20050;-82
2022/06/29 05:29:36;;;;;;;10.35;4.70;;;;;;;;;;6180166;28;20046;-81
2022/06/29 05:32:38;;;;;;;7.33;4.53;;;;;;;;;;6166860;28;20962;-81
2022/06/29 05:35:47;;;;;;;11.43;4.55;;;;;;;;;;6179411;28;20046;-82
2022/06/29 05:38:50;;;;;;;8.43;5.10;;;;;;;;;;6177530;28;20185;-81
2022/06/29 05:41:56;;;;;;;10.32;5.03;;;;;;;;;;6181415;28;20038;-82
2022/06/29 05:44:58;;;;;;;12.75;6.00;;;;;;;;;;6179131;28;20190;-84
2022/06/29 05:48:00;;;;;;;12.77;5.22;;;;;;;;;;6179350;28;20153;-84
2022/06/29 05:51:01;;;;;;;15.18;5.88;;;;;;;;;;6183064;28;20056;-84
2022/06/29 05:54:03;;;;;;;14.13;5.40;;;;;;;;;;6186169;28;20132;-83
2022/06/29 05:57:05;;;;;;;9.95;4.78;;;;;;;;;;6166298;28;20129;-83
2022/06/29 06:00:07;;;;;;;9.57;5.15;;;;;;;;;;6149854;28;20149;-82
2022/06/29 06:03:12;;;;;;;11.93;5.20;;;;;;;;;;6190811;28;20054;-82
2022/06/29 06:06:14;;;;;;;15.32;5.05;;;;;;;;;;6184422;28;20106;-80
2022/06/29 06:09:15;;;;;;;30.35;8.20;;;;;;;;;;6182465;28;20093;-80
2022/06/29 06:12:17;;;;;;;24.13;7.75;;;;;;;;;;6173301;28;20415;-84
2022/06/29 06:15:19;;;;;;;21.52;8.93;;;;;;;;;;6173310;28;20170;-82
2022/06/29 06:18:20;;;;;;;23.63;7.60;;;;;;;;;;6181106;28;20054;-83
2022/06/29 06:21:22;;;;;;;22.92;7.50;;;;;;;;;;6178438;28;20520;-83
2022/06/29 06:24:23;;;;;;;19.92;6.40;;;;;;;;;;6159286;28;20154;-80
2022/06/29 06:27:25;;;;;;;23.17;7.35;;;;;;;;;;6147455;28;20159;-83
2022/06/29 06:30:27;;;;;;;13.13;5.55;;;;;;;;;;6150185;28;20497;-83
2022/06/29 06:33:29;;;;;;;18.48;6.05;;;;;;;;;;6185106;28;20125;-82
2022/06/29 06:36:31;;;;;;;26.65;7.68;;;;;;;;;;6185866;28;20218;-84
2022/06/29 06:39:32;;;;;;;22.75;6.93;;;;;;;;;;6177746;28;20047;-81
